Dallas, OR

2:45 PM PDT on March 24, 2017 (GMT -0700)
Oakdale Rd | | Change Station

Elev 500 ft 44.92 °N, 123.32 °W | Updated 9 seconds ago

Rain
Rain
53.1 °F
Feels Like 53.1 °F
N
7.0
Wind Variable Wind from SSE

Today
High -- | Low -- °F
--% Chance of Precip.
Yesterday
High -- | Low -- °F
Precip. -- in
Pressure 29.92 in
Visibility 10.0 miles
Clouds Scattered Clouds 2400 ft
Mostly Cloudy 3400 ft
Mostly Cloudy 4400 ft
Dew Point 43 °F
Humidity 70%
Rainfall 0.53 in
Snow Depth Not available.
7:08 AM 7:31 PM
Waning Crescent, 13% visible
METAR KSLE 242056Z 19014G25KT 10SM SCT024 BKN034 BKN044 13/07 A2992 RMK AO2 SLP132 T01280067 50012
Pressure 29.92 in
Visibility 10.0 miles
Clouds Scattered Clouds 2400 ft
Mostly Cloudy 3400 ft
Mostly Cloudy 4400 ft
Dew Point 43 °F
Humidity 70%
Rainfall 0.53 in
Snow Depth Not available.
7:08 AM 7:31 PM
Waning Crescent, 13% visible
METAR KSLE 242056Z 19014G25KT 10SM SCT024 BKN034 BKN044 13/07 A2992 RMK AO2 SLP132 T01280067 50012

Get Severe Weather Alerts

Thanks for signing up!

Be on the lookout for a verification email in your inbox.

You'll start receiving the daily forecast at 8 AM.

×

10-Day Weather Forecast

Almanac

Astronomy

Mar. 24, 2017 Rise Set
Actual Time
Civil Twilight
Nautical Twilight
Astronomical Twilight
Moon
Length of Visible Light
Length of Day
Tomorrow will be .
, % of the Moon is Illuminated

Today's Extremes

State Highs State Lows

Community

WunderPhotos

Upload Photos

1,962,540 photos uploaded!

WunderBlog® & News

Nearby

Air Quality

  Air Quality AQ Index Pollutant
Not available.

Snow Depth

Station Depth Elevation

Earthquake Activity

City Distance Mag. Time & Date
Minimum magnitude displayed is 2.5.

Earthquake Activity

City Distance Mag. Time & Date
Minimum magnitude displayed is 2.5.

Coastal Water Temperatures

Place Temperature

Stations

Nearby Weather Stations

Station Location Temp. Windchill Dew Point Humidity Wind Precip. Elev Updated Type
                   

Watches & Warnings

There are currently no watches in effect.